Terminal Aerodrome Forecast
Issued by NWS

Home | Current Version | Previous Version | Text Only | Print | Product List | Glossary On
Versions: 1 2 3 4 5 6 7 8 9 10 11 12 13
000
FTUS45 KRIW 251120
TAFRKS
TAF
KRKS 251120Z 2512/2612 15006KT P6SM FEW120 BKN200
     FM251700 25009KT P6SM VCSH SCT030 BKN050
     FM252000 25012KT P6SM -SHRA SCT020 BKN035
     FM260100 28014G20KT P6SM -SHRA BKN030
     FM260600 28014G20KT P6SM SCT030=

USA.gov is the U.S. government's official web portal to all federal, state and local government web resources and services.